Time;durP1;ratioP1;P1;durP2;ratioP2;P2;SDS_P1;SDS_P2;PMS_P1;PMS_P2;Temp;Humidity;BMP_temperature;BMP_pressure;BME280_temperature;BME280_humidity;BME280_pressure;Samples;Min_cycle;Max_cycle;Signal;HPM_P1;HPM_P2
2024/04/24 00:01:51;;;;;;;;;;;;;;;;;;137598;1275;22314;-75
2024/04/24 00:04:52;;;;;;;;;;;;;;;;;;137592;1275;22264;-78
2024/04/24 00:07:54;;;;;;;;;;;;;;;;;;137567;1275;22318;-77
2024/04/24 00:10:55;;;;;;;;;;;;;;;;;;137591;1275;22299;-77
2024/04/24 00:13:56;;;;;;;;;;;;;;;;;;137575;1275;22329;-77
2024/04/24 00:16:57;;;;;;;;;;;;;;;;;;137574;1275;22413;-77
2024/04/24 00:19:58;;;;;;;;;;;;;;;;;;137592;1275;22305;-77
2024/04/24 00:22:59;;;;;;;;;;;;;;;;;;137612;1271;22750;-77
2024/04/24 00:26:00;;;;;;;;;;;;;;;;;;137593;1275;22297;-77
2024/04/24 00:29:01;;;;;;;;;;;;;;;;;;137574;1275;23322;-78
2024/04/24 00:32:05;;;;;;;;;;;;;;;;;;137570;1275;22277;-75
2024/04/24 00:35:06;;;;;;;;;;;;;;;;;;137578;1275;22296;-77
2024/04/24 00:38:07;;;;;;;;;;;;;;;;;;137585;1275;22689;-77
2024/04/24 00:41:08;;;;;;;;;;;;;;;;;;137593;1275;22287;-77
2024/04/24 00:44:09;;;;;;;;;;;;;;;;;;137577;1275;22773;-77
2024/04/24 00:47:12;;;;;;;;;;;;;;;;;;137549;1275;22311;-78
2024/04/24 00:50:15;;;;;;;;;;;;;;;;;;137550;1275;22330;-76
2024/04/24 00:53:16;;;;;;;;;;;;;;;;;;137564;1275;22643;-77
2024/04/24 00:56:18;;;;;;;;;;;;;;;;;;137565;1275;22658;-77
2024/04/24 00:59:19;;;;;;;;;;;;;;;;;;137575;1275;22385;-76
2024/04/24 01:02:20;;;;;;;;;;;;;;;;;;137583;1275;22319;-77
2024/04/24 01:05:21;;;;;;;;;;;;;;;;;;137585;1275;22298;-77
2024/04/24 01:08:22;;;;;;;;;;;;;;;;;;137582;1275;22342;-77
2024/04/24 01:11:23;;;;;;;;;;;;;;;;;;137536;1275;22370;-78
2024/04/24 01:14:25;;;;;;;;;;;;;;;;;;137585;1275;22267;-77
2024/04/24 01:17:26;;;;;;;;;;;;;;;;;;137574;1275;22285;-77
2024/04/24 01:20:27;;;;;;;;;;;;;;;;;;137597;1275;22669;-77
2024/04/24 01:23:28;;;;;;;;;;;;;;;;;;137548;1275;22289;-78
2024/04/24 01:26:29;;;;;;;;;;;;;;;;;;137602;1274;22283;-78
2024/04/24 01:29:30;;;;;;;;;;;;;;;;;;137660;1275;22367;-77
2024/04/24 01:32:31;;;;;;;;;;;;;;;;;;137747;1275;22339;-77
2024/04/24 01:35:32;;;;;;;;;;;;;;;;;;137775;1275;22267;-78
2024/04/24 01:38:34;;;;;;;;;;;;;;;;;;137756;1275;22206;-78
2024/04/24 01:41:35;;;;;;;;;;;;;;;;;;137697;1275;22261;-78
2024/04/24 01:44:36;;;;;;;;;;;;;;;;;;137588;1275;22291;-77
2024/04/24 01:47:37;;;;;;;;;;;;;;;;;;137651;1275;22346;-79
2024/04/24 01:50:38;;;;;;;;;;;;;;;;;;137649;1275;22293;-79
2024/04/24 01:53:39;;;;;;;;;;;;;;;;;;137578;1275;22285;-77
2024/04/24 01:56:40;;;;;;;;;;;;;;;;;;137594;1275;22723;-77
2024/04/24 01:59:41;;;;;;;;;;;;;;;;;;137559;1275;22357;-77
2024/04/24 02:02:42;;;;;;;;;;;;;;;;;;137531;1275;22698;-77
2024/04/24 02:05:44;;;;;;;;;;;;;;;;;;137570;1275;22223;-77
2024/04/24 02:08:47;;;;;;;;;;;;;;;;;;137583;1272;22226;-77
2024/04/24 02:11:48;;;;;;;;;;;;;;;;;;137548;1275;22896;-77
2024/04/24 02:14:49;;;;;;;;;;;;;;;;;;137569;1275;22386;-76
2024/04/24 02:17:51;;;;;;;;;;;;;;;;;;137580;1275;22278;-77
2024/04/24 02:20:52;;;;;;;;;;;;;;;;;;137573;1275;22624;-77
2024/04/24 02:23:53;;;;;;;;;;;;;;;;;;137606;1275;22286;-78
2024/04/24 02:26:54;;;;;;;;;;;;;;;;;;137552;1275;22208;-77
2024/04/24 02:29:55;;;;;;;;;;;;;;;;;;137545;1275;22851;-77
2024/04/24 02:32:56;;;;;;;;;;;;;;;;;;137578;1275;22278;-80
2024/04/24 02:35:57;;;;;;;;;;;;;;;;;;137648;1275;22285;-81
2024/04/24 02:38:58;;;;;;;;;;;;;;;;;;137631;1275;22277;-81
2024/04/24 02:42:00;;;;;;;;;;;;;;;;;;137598;1275;22370;-81
2024/04/24 02:45:01;;;;;;;;;;;;;;;;;;137602;1275;22281;-80
2024/04/24 02:48:02;;;;;;;;;;;;;;;;;;137598;1275;22697;-81
2024/04/24 02:51:03;;;;;;;;;;;;;;;;;;137620;1274;22183;-81
2024/04/24 02:54:04;;;;;;;;;;;;;;;;;;137583;1274;22272;-81
2024/04/24 02:57:05;;;;;;;;;;;;;;;;;;137604;1274;22560;-83
2024/04/24 03:00:07;;;;;;;;;;;;;;;;;;137566;1275;22945;-81
2024/04/24 03:03:08;;;;;;;;;;;;;;;;;;137565;1275;22296;-82
2024/04/24 03:06:09;;;;;;;;;;;;;;;;;;137586;1275;22202;-83
2024/04/24 03:09:10;;;;;;;;;;;;;;;;;;137566;1275;22302;-83
2024/04/24 03:12:11;;;;;;;;;;;;;;;;;;137608;1275;22178;-83
2024/04/24 03:15:12;;;;;;;;;;;;;;;;;;137596;1275;22397;-82
2024/04/24 03:18:13;;;;;;;;;;;;;;;;;;137598;1275;22692;-82
2024/04/24 03:21:14;;;;;;;;;;;;;;;;;;137612;1275;22763;-81
2024/04/24 03:24:15;;;;;;;;;;;;;;;;;;137620;1275;22296;-81
2024/04/24 03:27:16;;;;;;;;;;;;;;;;;;137624;1275;22261;-81
2024/04/24 03:30:18;;;;;;;;;;;;;;;;;;137594;1275;22398;-83
2024/04/24 03:33:19;;;;;;;;;;;;;;;;;;137589;1275;22280;-83
2024/04/24 03:36:20;;;;;;;;;;;;;;;;;;137603;1275;22389;-82
2024/04/24 03:39:21;;;;;;;;;;;;;;;;;;137580;1275;22306;-82
2024/04/24 03:42:22;;;;;;;;;;;;;;;;;;137615;1274;22314;-83
2024/04/24 03:45:23;;;;;;;;;;;;;;;;;;137574;1275;22667;-80
2024/04/24 03:48:25;;;;;;;;;;;;;;;;;;137519;1275;22245;-80
2024/04/24 03:51:29;;;;;;;;;;;;;;;;;;137467;1275;22334;-80
2024/04/24 03:54:30;;;;;;;;;;;;;;;;;;137577;1275;22816;-80
2024/04/24 03:57:32;;;;;;;;;;;;;;;;;;137549;1275;22312;-80
2024/04/24 04:00:33;;;;;;;;;;;;;;;;;;137587;1275;22374;-79
2024/04/24 04:03:34;;;;;;;;;;;;;;;;;;137546;1274;22741;-80
2024/04/24 04:06:35;;;;;;;;;;;;;;;;;;137535;1275;22746;-80
2024/04/24 04:09:36;;;;;;;;;;;;;;;;;;137558;1275;22280;-79
2024/04/24 04:12:37;;;;;;;;;;;;;;;;;;137573;1275;22360;-79
2024/04/24 04:15:38;;;;;;;;;;;;;;;;;;137648;1275;22208;-81
2024/04/24 04:18:40;;;;;;;;;;;;;;;;;;137576;1275;22302;-78
2024/04/24 04:21:41;;;;;;;;;;;;;;;;;;137565;1274;22326;-79
2024/04/24 04:24:42;;;;;;;;;;;;;;;;;;137586;1275;22212;-79
2024/04/24 04:27:43;;;;;;;;;;;;;;;;;;137638;1274;22214;-84
2024/04/24 04:30:45;;;;;;;;;;;;;;;;;;137707;1275;22412;-83
2024/04/24 04:33:46;;;;;;;;;;;;;;;;;;137783;1275;22310;-80
2024/04/24 04:36:47;;;;;;;;;;;;;;;;;;137539;1275;22348;-80
2024/04/24 04:39:48;;;;;;;;;;;;;;;;;;136673;1279;22268;-80
2024/04/24 04:45:56;;;;;;;;;;;;;;;;;;133085;1310;544128;-78
2024/04/24 04:48:57;;;;;;;;;;;;;;;;;;136492;1285;22333;-77
2024/04/24 04:51:59;;;;;;;;;;;;;;;;;;136238;1285;22559;-82
2024/04/24 04:55:02;;;;;;;;;;;;;;;;;;136431;1285;22554;-81
2024/04/24 04:58:06;;;;;;;;;;;;;;;;;;137501;1271;165081;-82
2024/04/24 05:01:08;;;;;;;;;;;;;;;;;;137752;1271;22795;-83
2024/04/24 05:04:09;;;;;;;;;;;;;;;;;;137736;1271;22315;-81
2024/04/24 05:07:11;;;;;;;;;;;;;;;;;;137752;1271;22335;-80
2024/04/24 05:10:12;;;;;;;;;;;;;;;;;;137438;1271;22625;-82
2024/04/24 05:13:13;;;;;;;;;;;;;;;;;;137733;1271;22418;-81
2024/04/24 05:16:17;;;;;;;;;;;;;;;;;;137406;1271;23575;-82
2024/04/24 05:19:18;;;;;;;;;;;;;;;;;;137396;1271;22887;-82
2024/04/24 05:22:19;;;;;;;;;;;;;;;;;;137606;1267;22538;-84
2024/04/24 05:25:21;;;;;;;;;;;;;;;;;;137375;1271;22576;-83
2024/04/24 05:31:42;;;;;;;;;;;;;;;;;;137782;1271;22302;-82
2024/04/24 05:34:43;;;;;;;;;;;;;;;;;;137700;1271;22354;-82
2024/04/24 05:37:45;;;;;;;;;;;;;;;;;;137796;1271;22323;-82
2024/04/24 05:40:46;;;;;;;;;;;;;;;;;;137772;1271;22828;-82
2024/04/24 05:43:47;;;;;;;;;;;;;;;;;;137698;1271;22426;-81
2024/04/24 05:46:48;;;;;;;;;;;;;;;;;;137762;1271;22313;-82
2024/04/24 05:49:49;;;;;;;;;;;;;;;;;;137739;1271;22385;-80
2024/04/24 05:52:50;;;;;;;;;;;;;;;;;;137737;1271;22320;-82
2024/04/24 05:55:51;;;;;;;;;;;;;;;;;;137488;1271;22510;-81
2024/04/24 05:58:53;;;;;;;;;;;;;;;;;;137162;1271;22530;-81
2024/04/24 06:01:54;;;;;;;;;;;;;;;;;;137727;1271;22265;-81
2024/04/24 06:04:55;;;;;;;;;;;;;;;;;;137768;1271;22284;-82
2024/04/24 06:07:56;;;;;;;;;;;;;;;;;;137377;1272;22546;-81
2024/04/24 06:10:57;;;;;;;;;;;;;;;;;;137593;1264;22536;-79
2024/04/24 06:14:01;;;;;;;;;;;;;;;;;;137545;1271;23290;-81
2024/04/24 06:17:03;;;;;;;;;;;;;;;;;;137693;1272;22359;-82
2024/04/24 06:20:04;;;;;;;;;;;;;;;;;;137443;1271;25082;-81
2024/04/24 06:23:05;;;;;;;;;;;;;;;;;;137728;1271;22282;-83
2024/04/24 06:26:06;;;;;;;;;;;;;;;;;;137697;1264;22415;-86
2024/04/24 06:29:08;;;;;;;;;;;;;;;;;;137534;1272;22506;-81
2024/04/24 06:32:09;;;;;;;;;;;;;;;;;;137662;1271;23166;-82
2024/04/24 06:35:10;;;;;;;;;;;;;;;;;;137472;1272;22973;-80
2024/04/24 06:38:11;;;;;;;;;;;;;;;;;;137735;1271;22390;-82
2024/04/24 06:41:12;;;;;;;;;;;;;;;;;;137752;1272;22419;-82
2024/04/24 06:44:13;;;;;;;;;;;;;;;;;;137790;1264;22401;-80
2024/04/24 06:47:15;;;;;;;;;;;;;;;;;;137465;1272;22516;-80
2024/04/24 06:50:16;;;;;;;;;;;;;;;;;;137339;1271;22526;-81
2024/04/24 06:53:17;;;;;;;;;;;;;;;;;;137583;1271;22491;-81
2024/04/24 06:56:19;;;;;;;;;;;;;;;;;;137214;1271;22591;-80
2024/04/24 06:59:20;;;;;;;;;;;;;;;;;;137574;1271;22533;-84
2024/04/24 07:02:21;;;;;;;;;;;;;;;;;;137698;1272;22515;-80
2024/04/24 07:05:23;;;;;;;;;;;;;;;;;;137766;1271;22296;-81
2024/04/24 07:08:24;;;;;;;;;;;;;;;;;;137450;1271;22542;-80
2024/04/24 07:11:25;;;;;;;;;;;;;;;;;;137687;1272;22629;-78
2024/04/24 07:14:27;;;;;;;;;;;;;;;;;;137736;1271;22399;-81
2024/04/24 07:17:28;;;;;;;;;;;;;;;;;;137306;1272;22505;-80
2024/04/24 07:20:29;;;;;;;;;;;;;;;;;;137746;1266;22833;-81
2024/04/24 07:23:30;;;;;;;;;;;;;;;;;;137458;1271;22551;-82
2024/04/24 07:26:31;;;;;;;;;;;;;;;;;;137264;1271;22521;-81
2024/04/24 07:29:34;;;;;;;;;;;;;;;;;;137486;1271;22529;-83
2024/04/24 07:32:36;;;;;;;;;;;;;;;;;;137595;1272;22544;-78
2024/04/24 07:35:37;;;;;;;;;;;;;;;;;;137759;1267;22288;-82
2024/04/24 07:38:38;;;;;;;;;;;;;;;;;;137402;1271;24246;-80
2024/04/24 07:41:39;;;;;;;;;;;;;;;;;;137495;1272;22530;-82
2024/04/24 07:44:43;;;;;;;;;;;;;;;;;;137382;1272;22496;-81
2024/04/24 07:47:44;;;;;;;;;;;;;;;;;;137754;1272;22275;-82
2024/04/24 07:50:46;;;;;;;;;;;;;;;;;;137692;1271;22383;-82
2024/04/24 07:53:50;;;;;;;;;;;;;;;;;;137702;1271;22284;-82
2024/04/24 07:56:51;;;;;;;;;;;;;;;;;;137689;1271;22290;-83
2024/04/24 07:59:52;;;;;;;;;;;;;;;;;;137642;1271;22282;-83
2024/04/24 08:02:54;;;;;;;;;;;;;;;;;;137683;1271;22270;-80
2024/04/24 08:05:55;;;;;;;;;;;;;;;;;;137668;1271;23161;-83
2024/04/24 08:08:56;;;;;;;;;;;;;;;;;;137748;1271;22352;-83
2024/04/24 08:11:57;;;;;;;;;;;;;;;;;;137701;1272;22794;-83
2024/04/24 08:15:00;;;;;;;;;;;;;;;;;;137556;1271;22501;-84
2024/04/24 08:18:01;;;;;;;;;;;;;;;;;;137561;1272;22554;-84
2024/04/24 08:21:03;;;;;;;;;;;;;;;;;;137577;1272;22499;-84
2024/04/24 08:24:07;;;;;;;;;;;;;;;;;;137690;1271;22274;-83
2024/04/24 08:27:08;;;;;;;;;;;;;;;;;;137701;1271;22841;-84
2024/04/24 08:30:10;;;;;;;;;;;;;;;;;;137602;1272;22309;-83
2024/04/24 08:33:32;;;;;;;;;;;;;;;;;;133101;1311;544080;-83
2024/04/24 08:36:35;;;;;;;;;;;;;;;;;;136127;1287;22603;-83
2024/04/24 08:39:37;;;;;;;;;;;;;;;;;;136425;1287;22796;-83
2024/04/24 08:42:40;;;;;;;;;;;;;;;;;;136412;1287;22325;-82
2024/04/24 08:45:42;;;;;;;;;;;;;;;;;;136179;1284;379594;-82
2024/04/24 08:48:44;;;;;;;;;;;;;;;;;;136545;1285;22786;-81
2024/04/24 08:51:47;;;;;;;;;;;;;;;;;;136541;1285;22883;-83
2024/04/24 08:54:49;;;;;;;;;;;;;;;;;;136570;1276;22364;-80
2024/04/24 08:57:52;;;;;;;;;;;;;;;;;;136559;1285;22327;-83
2024/04/24 09:00:54;;;;;;;;;;;;;;;;;;136572;1285;22608;-83
2024/04/24 09:03:56;;;;;;;;;;;;;;;;;;136278;1285;22540;-84
2024/04/24 09:06:59;;;;;;;;;;;;;;;;;;136863;1280;22335;-82
2024/04/24 09:10:04;;;;;;;;;;;;;;;;;;136810;1281;22329;-83
2024/04/24 09:13:06;;;;;;;;;;;;;;;;;;136809;1280;22457;-83
2024/04/24 09:16:09;;;;;;;;;;;;;;;;;;137252;1276;22784;-84
2024/04/24 09:19:11;;;;;;;;;;;;;;;;;;137266;1276;22280;-84
2024/04/24 09:22:16;;;;;;;;;;;;;;;;;;137279;1276;22311;-82
2024/04/24 09:25:19;;;;;;;;;;;;;;;;;;137299;1276;22501;-83
2024/04/24 09:28:23;;;;;;;;;;;;;;;;;;137296;1276;22402;-81
2024/04/24 09:31:25;;;;;;;;;;;;;;;;;;137285;1276;22535;-84
2024/04/24 09:34:28;;;;;;;;;;;;;;;;;;137105;1276;22508;-83
2024/04/24 09:37:32;;;;;;;;;;;;;;;;;;137168;1276;22602;-83
2024/04/24 09:40:35;;;;;;;;;;;;;;;;;;137311;1276;22294;-85
2024/04/24 09:43:37;;;;;;;;;;;;;;;;;;137147;1276;22511;-84
2024/04/24 09:46:40;;;;;;;;;;;;;;;;;;137372;1273;22530;-83
2024/04/24 09:49:43;;;;;;;;;;;;;;;;;;137547;1269;22293;-84
2024/04/24 09:52:46;;;;;;;;;;;;;;;;;;137577;1269;22335;-83
2024/04/24 09:55:49;;;;;;;;;;;;;;;;;;137550;1273;22265;-84
2024/04/24 09:58:51;;;;;;;;;;;;;;;;;;137544;1273;23132;-84
2024/04/24 10:01:54;;;;;;;;;;;;;;;;;;137648;1273;22379;-84
2024/04/24 10:04:57;;;;;;;;;;;;;;;;;;137608;1273;22502;-84
2024/04/24 10:08:00;;;;;;;;;;;;;;;;;;137628;1273;22383;-82
2024/04/24 10:11:03;;;;;;;;;;;;;;;;;;137566;1273;22491;-85
2024/04/24 10:14:05;;;;;;;;;;;;;;;;;;137552;1273;23072;-83
2024/04/24 10:17:08;;;;;;;;;;;;;;;;;;137502;1273;22479;-83
2024/04/24 10:20:10;;;;;;;;;;;;;;;;;;137645;1273;22399;-83
2024/04/24 10:23:13;;;;;;;;;;;;;;;;;;137463;1273;22545;-85
2024/04/24 10:26:15;;;;;;;;;;;;;;;;;;137475;1269;22448;-84
2024/04/24 10:29:19;;;;;;;;;;;;;;;;;;137617;1273;22486;-83
2024/04/24 10:32:21;;;;;;;;;;;;;;;;;;137686;1273;22532;-83
2024/04/24 10:35:26;;;;;;;;;;;;;;;;;;137693;1273;22287;-84
2024/04/24 10:38:28;;;;;;;;;;;;;;;;;;137657;1273;22297;-83
2024/04/24 10:41:30;;;;;;;;;;;;;;;;;;137651;1270;22274;-83
2024/04/24 10:44:33;;;;;;;;;;;;;;;;;;137639;1273;22404;-84
2024/04/24 10:47:35;;;;;;;;;;;;;;;;;;137641;1273;22353;-84
2024/04/24 10:50:38;;;;;;;;;;;;;;;;;;137677;1273;22330;-84
2024/04/24 10:53:40;;;;;;;;;;;;;;;;;;137663;1273;22289;-84
2024/04/24 10:56:42;;;;;;;;;;;;;;;;;;137662;1273;22404;-81
2024/04/24 10:59:45;;;;;;;;;;;;;;;;;;137648;1273;22318;-84
2024/04/24 11:02:47;;;;;;;;;;;;;;;;;;137619;1257;22385;-83
2024/04/24 11:05:50;;;;;;;;;;;;;;;;;;137553;1273;22332;-82
2024/04/24 11:08:52;;;;;;;;;;;;;;;;;;137573;1273;22272;-82
2024/04/24 11:11:56;;;;;;;;;;;;;;;;;;137560;1273;22329;-82
2024/04/24 11:14:58;;;;;;;;;;;;;;;;;;137585;1273;22312;-83
2024/04/24 11:18:01;;;;;;;;;;;;;;;;;;137547;1273;22396;-81
2024/04/24 11:21:03;;;;;;;;;;;;;;;;;;137585;1273;22355;-81
2024/04/24 11:24:06;;;;;;;;;;;;;;;;;;137609;1273;22394;-84
2024/04/24 11:27:08;;;;;;;;;;;;;;;;;;137563;1269;22278;-82
2024/04/24 11:30:11;;;;;;;;;;;;;;;;;;137573;1267;22330;-80
2024/04/24 11:33:13;;;;;;;;;;;;;;;;;;137549;1273;22531;-81
